sensor_id;sensor_type;location;lat;lon;timestamp;temperature;humidity
3208;DHT22;1616;52.394;9.756;2024-03-23T00:56:21;8.60;99.90
3208;DHT22;1616;52.394;9.756;2024-03-23T00:58:46;8.60;99.90
3208;DHT22;1616;52.394;9.756;2024-03-23T01:01:12;8.60;99.90
3208;DHT22;1616;52.394;9.756;2024-03-23T01:03:37;8.60;99.90
3208;DHT22;1616;52.394;9.756;2024-03-23T01:06:03;8.60;99.90
3208;DHT22;1616;52.394;9.756;2024-03-23T01:08:29;8.60;99.90
3208;DHT22;1616;52.394;9.756;2024-03-23T01:10:59;8.60;99.90
3208;DHT22;1616;52.394;9.756;2024-03-23T01:13:25;8.60;99.90
3208;DHT22;1616;52.394;9.756;2024-03-23T01:15:51;8.60;99.90
3208;DHT22;1616;52.394;9.756;2024-03-23T01:18:22;8.50;99.90
3208;DHT22;1616;52.394;9.756;2024-03-23T01:20:48;8.50;99.90
3208;DHT22;1616;52.394;9.756;2024-03-23T01:23:14;8.50;99.90
3208;DHT22;1616;52.394;9.756;2024-03-23T01:25:39;8.50;99.90
3208;DHT22;1616;52.394;9.756;2024-03-23T01:28:05;8.50;99.90
3208;DHT22;1616;52.394;9.756;2024-03-23T01:30:35;8.50;99.90
3208;DHT22;1616;52.394;9.756;2024-03-23T01:33:01;8.40;99.90
3208;DHT22;1616;52.394;9.756;2024-03-23T01:35:28;8.40;99.90
3208;DHT22;1616;52.394;9.756;2024-03-23T01:37:54;8.30;99.90
3208;DHT22;1616;52.394;9.756;2024-03-23T01:40:20;8.30;99.90
3208;DHT22;1616;52.394;9.756;2024-03-23T01:42:58;8.20;99.90
3208;DHT22;1616;52.394;9.756;2024-03-23T01:45:24;8.20;99.90
3208;DHT22;1616;52.394;9.756;2024-03-23T01:47:53;8.10;99.90
3208;DHT22;1616;52.394;9.756;2024-03-23T01:50:22;8.10;99.90
3208;DHT22;1616;52.394;9.756;2024-03-23T01:52:49;8.00;99.90
3208;DHT22;1616;52.394;9.756;2024-03-23T01:55:15;8.00;99.90
3208;DHT22;1616;52.394;9.756;2024-03-23T01:57:40;8.00;99.90
3208;DHT22;1616;52.394;9.756;2024-03-23T02:00:09;8.00;99.90
3208;DHT22;1616;52.394;9.756;2024-03-23T02:02:46;8.00;99.90
3208;DHT22;1616;52.394;9.756;2024-03-23T02:05:13;8.00;99.90
3208;DHT22;1616;52.394;9.756;2024-03-23T02:07:39;8.00;99.90
3208;DHT22;1616;52.394;9.756;2024-03-23T02:10:07;8.00;99.90
3208;DHT22;1616;52.394;9.756;2024-03-23T02:12:34;8.00;99.90
3208;DHT22;1616;52.394;9.756;2024-03-23T02:15:00;8.10;99.90
3208;DHT22;1616;52.394;9.756;2024-03-23T02:17:26;8.00;99.90
3208;DHT22;1616;52.394;9.756;2024-03-23T02:19:51;8.00;99.90
3208;DHT22;1616;52.394;9.756;2024-03-23T02:22:17;8.00;99.90
3208;DHT22;1616;52.394;9.756;2024-03-23T02:24:44;8.00;99.90
3208;DHT22;1616;52.394;9.756;2024-03-23T02:27:11;8.00;99.90
3208;DHT22;1616;52.394;9.756;2024-03-23T02:29:37;8.00;99.90
3208;DHT22;1616;52.394;9.756;2024-03-23T02:32:03;8.00;99.90
3208;DHT22;1616;52.394;9.756;2024-03-23T02:34:28;8.00;99.90
3208;DHT22;1616;52.394;9.756;2024-03-23T02:36:54;8.00;99.90
3208;DHT22;1616;52.394;9.756;2024-03-23T02:39:21;8.00;99.90
3208;DHT22;1616;52.394;9.756;2024-03-23T02:41:46;8.00;99.90
3208;DHT22;1616;52.394;9.756;2024-03-23T02:44:13;8.00;99.90
3208;DHT22;1616;52.394;9.756;2024-03-23T02:46:39;8.00;99.90
3208;DHT22;1616;52.394;9.756;2024-03-23T02:49:05;8.00;99.90
3208;DHT22;1616;52.394;9.756;2024-03-23T02:51:31;8.00;99.90
3208;DHT22;1616;52.394;9.756;2024-03-23T02:53:56;8.00;99.90
3208;DHT22;1616;52.394;9.756;2024-03-23T02:56:22;8.00;99.90
3208;DHT22;1616;52.394;9.756;2024-03-23T02:58:48;8.00;99.90
3208;DHT22;1616;52.394;9.756;2024-03-23T03:01:14;7.90;99.90
3208;DHT22;1616;52.394;9.756;2024-03-23T03:03:40;7.90;99.90
3208;DHT22;1616;52.394;9.756;2024-03-23T03:06:06;7.90;99.90
3208;DHT22;1616;52.394;9.756;2024-03-23T03:08:32;7.90;99.90
3208;DHT22;1616;52.394;9.756;2024-03-23T03:10:58;7.80;99.90
3208;DHT22;1616;52.394;9.756;2024-03-23T03:13:23;7.80;99.90
3208;DHT22;1616;52.394;9.756;2024-03-23T03:15:49;7.90;99.90
3208;DHT22;1616;52.394;9.756;2024-03-23T03:18:14;7.90;99.90
3208;DHT22;1616;52.394;9.756;2024-03-23T03:20:40;7.90;99.90
3208;DHT22;1616;52.394;9.756;2024-03-23T03:23:06;7.90;99.90
3208;DHT22;1616;52.394;9.756;2024-03-23T03:25:33;7.90;99.90
3208;DHT22;1616;52.394;9.756;2024-03-23T03:27:58;7.90;99.90
3208;DHT22;1616;52.394;9.756;2024-03-23T03:30:24;7.90;99.90
3208;DHT22;1616;52.394;9.756;2024-03-23T03:32:53;7.80;99.90
3208;DHT22;1616;52.394;9.756;2024-03-23T03:35:20;7.80;99.90
3208;DHT22;1616;52.394;9.756;2024-03-23T03:37:45;7.70;99.90
3208;DHT22;1616;52.394;9.756;2024-03-23T03:40:12;7.80;99.90
3208;DHT22;1616;52.394;9.756;2024-03-23T03:42:38;7.80;99.90
3208;DHT22;1616;52.394;9.756;2024-03-23T03:45:04;7.80;99.90
3208;DHT22;1616;52.394;9.756;2024-03-23T03:47:30;7.80;99.90
3208;DHT22;1616;52.394;9.756;2024-03-23T03:49:56;7.80;99.90
3208;DHT22;1616;52.394;9.756;2024-03-23T03:52:22;7.80;99.90
3208;DHT22;1616;52.394;9.756;2024-03-23T03:54:48;7.80;99.90
3208;DHT22;1616;52.394;9.756;2024-03-23T03:57:14;7.80;99.90
3208;DHT22;1616;52.394;9.756;2024-03-23T03:59:40;7.80;99.90
3208;DHT22;1616;52.394;9.756;2024-03-23T04:02:05;7.80;99.90
3208;DHT22;1616;52.394;9.756;2024-03-23T04:04:32;7.80;99.90
3208;DHT22;1616;52.394;9.756;2024-03-23T04:07:01;7.80;99.90
3208;DHT22;1616;52.394;9.756;2024-03-23T04:09:28;7.80;99.90
3208;DHT22;1616;52.394;9.756;2024-03-23T04:11:55;7.80;99.90
3208;DHT22;1616;52.394;9.756;2024-03-23T04:14:21;7.90;99.90
3208;DHT22;1616;52.394;9.756;2024-03-23T04:16:46;7.90;99.90
3208;DHT22;1616;52.394;9.756;2024-03-23T04:19:12;7.90;99.90
3208;DHT22;1616;52.394;9.756;2024-03-23T04:21:38;7.90;99.90
3208;DHT22;1616;52.394;9.756;2024-03-23T04:24:04;7.90;99.90
3208;DHT22;1616;52.394;9.756;2024-03-23T04:26:30;7.80;99.90
3208;DHT22;1616;52.394;9.756;2024-03-23T04:28:56;7.70;99.90
3208;DHT22;1616;52.394;9.756;2024-03-23T04:31:21;7.60;99.90
3208;DHT22;1616;52.394;9.756;2024-03-23T04:33:47;7.60;99.90
3208;DHT22;1616;52.394;9.756;2024-03-23T04:36:14;7.50;99.90
3208;DHT22;1616;52.394;9.756;2024-03-23T04:38:39;7.50;99.90
3208;DHT22;1616;52.394;9.756;2024-03-23T04:41:05;7.50;99.90
3208;DHT22;1616;52.394;9.756;2024-03-23T04:43:30;7.40;99.90
3208;DHT22;1616;52.394;9.756;2024-03-23T04:45:56;7.40;99.90
3208;DHT22;1616;52.394;9.756;2024-03-23T04:48:24;7.40;99.90
3208;DHT22;1616;52.394;9.756;2024-03-23T04:50:55;7.40;99.90
3208;DHT22;1616;52.394;9.756;2024-03-23T04:53:21;7.40;99.90
3208;DHT22;1616;52.394;9.756;2024-03-23T04:55:46;7.40;99.90
3208;DHT22;1616;52.394;9.756;2024-03-23T04:58:12;7.40;99.90
3208;DHT22;1616;52.394;9.756;2024-03-23T05:00:38;7.40;99.90
3208;DHT22;1616;52.394;9.756;2024-03-23T05:03:04;7.40;99.90
3208;DHT22;1616;52.394;9.756;2024-03-23T05:05:30;7.40;99.90
3208;DHT22;1616;52.394;9.756;2024-03-23T05:07:55;7.40;99.90
3208;DHT22;1616;52.394;9.756;2024-03-23T05:10:21;7.40;99.90
3208;DHT22;1616;52.394;9.756;2024-03-23T05:12:48;7.40;99.90
3208;DHT22;1616;52.394;9.756;2024-03-23T05:15:13;7.40;99.90
3208;DHT22;1616;52.394;9.756;2024-03-23T05:17:39;7.30;99.90
3208;DHT22;1616;52.394;9.756;2024-03-23T05:20:06;7.30;99.90
3208;DHT22;1616;52.394;9.756;2024-03-23T05:22:38;7.30;99.90
3208;DHT22;1616;52.394;9.756;2024-03-23T05:25:04;7.30;99.90
3208;DHT22;1616;52.394;9.756;2024-03-23T05:27:33;7.20;99.90
3208;DHT22;1616;52.394;9.756;2024-03-23T05:29:58;7.20;99.90
3208;DHT22;1616;52.394;9.756;2024-03-23T05:32:24;7.10;99.90
3208;DHT22;1616;52.394;9.756;2024-03-23T05:34:50;7.10;99.90
3208;DHT22;1616;52.394;9.756;2024-03-23T05:37:21;7.10;99.90
3208;DHT22;1616;52.394;9.756;2024-03-23T05:39:47;7.10;99.90
3208;DHT22;1616;52.394;9.756;2024-03-23T05:42:18;7.10;99.90
3208;DHT22;1616;52.394;9.756;2024-03-23T05:44:45;7.10;99.90
3208;DHT22;1616;52.394;9.756;2024-03-23T05:47:11;7.10;99.90
3208;DHT22;1616;52.394;9.756;2024-03-23T05:49:38;6.80;99.90
3208;DHT22;1616;52.394;9.756;2024-03-23T05:52:05;7.10;99.90
3208;DHT22;1616;52.394;9.756;2024-03-23T05:54:31;7.00;99.90
3208;DHT22;1616;52.394;9.756;2024-03-23T05:57:03;7.00;99.90
3208;DHT22;1616;52.394;9.756;2024-03-23T05:59:29;7.00;99.90
3208;DHT22;1616;52.394;9.756;2024-03-23T06:01:55;7.00;99.90
3208;DHT22;1616;52.394;9.756;2024-03-23T06:04:20;7.00;99.90
3208;DHT22;1616;52.394;9.756;2024-03-23T06:06:48;6.90;99.90
3208;DHT22;1616;52.394;9.756;2024-03-23T06:09:14;6.90;99.90
3208;DHT22;1616;52.394;9.756;2024-03-23T06:11:40;7.00;99.90
3208;DHT22;1616;52.394;9.756;2024-03-23T06:14:05;7.00;99.90
3208;DHT22;1616;52.394;9.756;2024-03-23T06:16:31;7.00;99.90
3208;DHT22;1616;52.394;9.756;2024-03-23T06:18:57;7.00;99.90
3208;DHT22;1616;52.394;9.756;2024-03-23T06:21:24;7.00;99.90
3208;DHT22;1616;52.394;9.756;2024-03-23T06:23:53;7.00;99.90
3208;DHT22;1616;52.394;9.756;2024-03-23T06:26:20;7.00;99.90
3208;DHT22;1616;52.394;9.756;2024-03-23T06:28:48;7.00;99.90
3208;DHT22;1616;52.394;9.756;2024-03-23T06:31:14;7.00;99.90
3208;DHT22;1616;52.394;9.756;2024-03-23T06:33:40;7.00;99.90
3208;DHT22;1616;52.394;9.756;2024-03-23T06:36:10;7.00;99.90
3208;DHT22;1616;52.394;9.756;2024-03-23T06:38:36;7.00;99.90
3208;DHT22;1616;52.394;9.756;2024-03-23T06:41:04;7.10;99.90
3208;DHT22;1616;52.394;9.756;2024-03-23T06:43:29;7.10;99.90
3208;DHT22;1616;52.394;9.756;2024-03-23T06:45:56;7.20;99.90
3208;DHT22;1616;52.394;9.756;2024-03-23T06:48:23;7.20;99.90
3208;DHT22;1616;52.394;9.756;2024-03-23T06:50:49;7.20;99.90
3208;DHT22;1616;52.394;9.756;2024-03-23T06:53:15;7.30;99.90
3208;DHT22;1616;52.394;9.756;2024-03-23T06:55:41;7.40;99.90
3208;DHT22;1616;52.394;9.756;2024-03-23T06:58:07;7.40;99.90
3208;DHT22;1616;52.394;9.756;2024-03-23T07:00:33;7.50;99.90
3208;DHT22;1616;52.394;9.756;2024-03-23T07:03:01;7.60;99.90
3208;DHT22;1616;52.394;9.756;2024-03-23T07:05:29;7.70;99.90
3208;DHT22;1616;52.394;9.756;2024-03-23T07:07:54;7.80;99.90
3208;DHT22;1616;52.394;9.756;2024-03-23T07:10:21;7.80;99.90
3208;DHT22;1616;52.394;9.756;2024-03-23T07:12:46;7.90;99.90
3208;DHT22;1616;52.394;9.756;2024-03-23T07:15:13;7.90;99.90
3208;DHT22;1616;52.394;9.756;2024-03-23T07:17:39;8.00;99.90
3208;DHT22;1616;52.394;9.756;2024-03-23T07:20:06;8.10;99.90
3208;DHT22;1616;52.394;9.756;2024-03-23T07:22:36;8.10;99.90
3208;DHT22;1616;52.394;9.756;2024-03-23T07:25:01;8.10;99.90
3208;DHT22;1616;52.394;9.756;2024-03-23T07:27:29;8.20;99.90
3208;DHT22;1616;52.394;9.756;2024-03-23T07:29:54;8.20;99.90
3208;DHT22;1616;52.394;9.756;2024-03-23T07:32:21;8.30;99.90
3208;DHT22;1616;52.394;9.756;2024-03-23T07:34:47;8.40;99.90
3208;DHT22;1616;52.394;9.756;2024-03-23T07:37:13;8.40;99.90
3208;DHT22;1616;52.394;9.756;2024-03-23T07:39:40;8.50;99.90
3208;DHT22;1616;52.394;9.756;2024-03-23T07:42:06;8.60;99.90
3208;DHT22;1616;52.394;9.756;2024-03-23T07:44:33;8.70;99.90
3208;DHT22;1616;52.394;9.756;2024-03-23T07:47:02;8.70;99.90
3208;DHT22;1616;52.394;9.756;2024-03-23T07:49:28;8.80;99.90
3208;DHT22;1616;52.394;9.756;2024-03-23T07:51:53;8.80;99.90
3208;DHT22;1616;52.394;9.756;2024-03-23T07:54:20;8.90;99.90
3208;DHT22;1616;52.394;9.756;2024-03-23T07:56:46;8.90;99.90
3208;DHT22;1616;52.394;9.756;2024-03-23T07:59:11;8.90;99.90
3208;DHT22;1616;52.394;9.756;2024-03-23T08:01:39;8.90;99.90
3208;DHT22;1616;52.394;9.756;2024-03-23T08:04:05;8.90;99.90
3208;DHT22;1616;52.394;9.756;2024-03-23T08:06:31;8.80;99.90
3208;DHT22;1616;52.394;9.756;2024-03-23T08:08:57;8.80;99.90
3208;DHT22;1616;52.394;9.756;2024-03-23T08:11:27;8.70;99.90
3208;DHT22;1616;52.394;9.756;2024-03-23T08:13:53;8.80;99.90
3208;DHT22;1616;52.394;9.756;2024-03-23T08:16:19;8.80;99.90
3208;DHT22;1616;52.394;9.756;2024-03-23T08:18:45;8.90;99.90
3208;DHT22;1616;52.394;9.756;2024-03-23T08:21:10;8.90;99.90
3208;DHT22;1616;52.394;9.756;2024-03-23T08:23:37;9.00;99.90
3208;DHT22;1616;52.394;9.756;2024-03-23T08:26:08;9.40;99.90
3208;DHT22;1616;52.394;9.756;2024-03-23T08:28:34;9.70;99.90
3208;DHT22;1616;52.394;9.756;2024-03-23T08:31:18;10.20;99.90
3208;DHT22;1616;52.394;9.756;2024-03-23T08:33:43;11.00;99.90
3208;DHT22;1616;52.394;9.756;2024-03-23T08:36:10;11.70;99.90
3208;DHT22;1616;52.394;9.756;2024-03-23T08:38:38;12.50;99.90
3208;DHT22;1616;52.394;9.756;2024-03-23T08:41:05;13.00;99.90
3208;DHT22;1616;52.394;9.756;2024-03-23T08:43:32;13.20;99.90
3208;DHT22;1616;52.394;9.756;2024-03-23T08:46:14;13.60;99.90
3208;DHT22;1616;52.394;9.756;2024-03-23T08:48:42;14.10;99.90
3208;DHT22;1616;52.394;9.756;2024-03-23T08:51:12;14.40;99.90
3208;DHT22;1616;52.394;9.756;2024-03-23T08:53:39;14.50;99.90
3208;DHT22;1616;52.394;9.756;2024-03-23T08:56:06;14.50;99.90
3208;DHT22;1616;52.394;9.756;2024-03-23T08:58:33;14.40;99.90
3208;DHT22;1616;52.394;9.756;2024-03-23T09:01:09;14.40;99.90
3208;DHT22;1616;52.394;9.756;2024-03-23T09:03:36;14.30;99.90
3208;DHT22;1616;52.394;9.756;2024-03-23T09:06:07;14.10;99.90
3208;DHT22;1616;52.394;9.756;2024-03-23T09:08:33;14.00;99.90
3208;DHT22;1616;52.394;9.756;2024-03-23T09:11:04;14.30;99.90
3208;DHT22;1616;52.394;9.756;2024-03-23T09:13:35;14.80;99.90
3208;DHT22;1616;52.394;9.756;2024-03-23T09:16:01;15.30;99.90
3208;DHT22;1616;52.394;9.756;2024-03-23T09:18:31;15.50;99.90
3208;DHT22;1616;52.394;9.756;2024-03-23T09:20:58;15.70;99.90
3208;DHT22;1616;52.394;9.756;2024-03-23T09:23:23;15.80;99.90
3208;DHT22;1616;52.394;9.756;2024-03-23T09:25:49;16.30;99.90
3208;DHT22;1616;52.394;9.756;2024-03-23T09:28:15;17.20;99.90
3208;DHT22;1616;52.394;9.756;2024-03-23T09:30:41;18.20;99.90
3208;DHT22;1616;52.394;9.756;2024-03-23T09:33:10;19.20;99.90
3208;DHT22;1616;52.394;9.756;2024-03-23T09:35:37;20.10;99.90
3208;DHT22;1616;52.394;9.756;2024-03-23T09:38:03;20.10;99.90
3208;DHT22;1616;52.394;9.756;2024-03-23T09:40:29;19.60;96.40
3208;DHT22;1616;52.394;9.756;2024-03-23T09:42:55;18.70;94.10
3208;DHT22;1616;52.394;9.756;2024-03-23T09:45:28;17.80;94.20
3208;DHT22;1616;52.394;9.756;2024-03-23T09:47:55;16.90;93.00
3208;DHT22;1616;52.394;9.756;2024-03-23T09:50:22;16.00;95.30
3208;DHT22;1616;52.394;9.756;2024-03-23T09:52:47;15.90;99.90
3208;DHT22;1616;52.394;9.756;2024-03-23T09:55:13;16.50;99.90
3208;DHT22;1616;52.394;9.756;2024-03-23T09:57:42;17.30;99.90
3208;DHT22;1616;52.394;9.756;2024-03-23T10:00:08;18.20;99.90
3208;DHT22;1616;52.394;9.756;2024-03-23T10:02:34;19.40;99.90
3208;DHT22;1616;52.394;9.756;2024-03-23T10:05:00;20.30;99.90
3208;DHT22;1616;52.394;9.756;2024-03-23T10:07:26;20.50;94.80
3208;DHT22;1616;52.394;9.756;2024-03-23T10:09:55;20.10;90.80
3208;DHT22;1616;52.394;9.756;2024-03-23T10:12:22;19.40;84.10
3208;DHT22;1616;52.394;9.756;2024-03-23T10:14:49;18.60;84.60
3208;DHT22;1616;52.394;9.756;2024-03-23T10:17:18;17.90;86.80
3208;DHT22;1616;52.394;9.756;2024-03-23T10:19:45;17.80;93.10
3208;DHT22;1616;52.394;9.756;2024-03-23T10:22:21;18.20;91.20
3208;DHT22;1616;52.394;9.756;2024-03-23T10:24:48;18.80;94.10
3208;DHT22;1616;52.394;9.756;2024-03-23T10:27:19;19.50;90.50
3208;DHT22;1616;52.394;9.756;2024-03-23T10:29:48;20.00;83.50
3208;DHT22;1616;52.394;9.756;2024-03-23T10:32:16;20.50;79.10
3208;DHT22;1616;52.394;9.756;2024-03-23T10:34:41;20.90;71.70
3208;DHT22;1616;52.394;9.756;2024-03-23T10:37:07;21.10;67.10
3208;DHT22;1616;52.394;9.756;2024-03-23T10:39:38;21.40;70.50
3208;DHT22;1616;52.394;9.756;2024-03-23T10:42:05;22.10;69.40
3208;DHT22;1616;52.394;9.756;2024-03-23T10:44:31;22.70;61.20
3208;DHT22;1616;52.394;9.756;2024-03-23T10:46:58;22.90;59.30
3208;DHT22;1616;52.394;9.756;2024-03-23T10:49:32;22.90;56.10
3208;DHT22;1616;52.394;9.756;2024-03-23T10:51:59;22.30;50.50
3208;DHT22;1616;52.394;9.756;2024-03-23T10:54:27;21.10;49.80
3208;DHT22;1616;52.394;9.756;2024-03-23T10:57:05;19.60;51.00
3208;DHT22;1616;52.394;9.756;2024-03-23T10:59:33;18.10;54.90
3208;DHT22;1616;52.394;9.756;2024-03-23T11:02:01;16.80;59.80
3208;DHT22;1616;52.394;9.756;2024-03-23T11:04:33;15.50;64.10
3208;DHT22;1616;52.394;9.756;2024-03-23T11:07:00;14.40;69.00
3208;DHT22;1616;52.394;9.756;2024-03-23T11:14:52;11.90;83.60
3208;DHT22;1616;52.394;9.756;2024-03-23T11:17:19;11.70;95.50
3208;DHT22;1616;52.394;9.756;2024-03-23T11:19:46;12.20;99.90
3208;DHT22;1616;52.394;9.756;2024-03-23T11:25:25;12.20;97.70
3208;DHT22;1616;52.394;9.756;2024-03-23T11:32:54;10.90;97.90
3208;DHT22;1616;52.394;9.756;2024-03-23T11:38:11;10.30;99.90
3208;DHT22;1616;52.394;9.756;2024-03-23T11:40:41;10.60;99.90
3208;DHT22;1616;52.394;9.756;2024-03-23T11:48:20;12.60;99.90
3208;DHT22;1616;52.394;9.756;2024-03-23T11:50:47;12.90;99.90
3208;DHT22;1616;52.394;9.756;2024-03-23T11:53:15;12.90;99.90
3208;DHT22;1616;52.394;9.756;2024-03-23T11:55:52;12.40;99.90
3208;DHT22;1616;52.394;9.756;2024-03-23T11:58:20;11.80;99.90
3208;DHT22;1616;52.394;9.756;2024-03-23T12:00:57;11.20;99.90
3208;DHT22;1616;52.394;9.756;2024-03-23T12:03:26;11.10;99.90
3208;DHT22;1616;52.394;9.756;2024-03-23T12:05:55;11.10;99.90
3208;DHT22;1616;52.394;9.756;2024-03-23T12:08:24;11.00;99.90
3208;DHT22;1616;52.394;9.756;2024-03-23T12:10:52;10.90;99.90
3208;DHT22;1616;52.394;9.756;2024-03-23T12:13:20;10.80;99.90
3208;DHT22;1616;52.394;9.756;2024-03-23T12:15:48;10.90;99.90
3208;DHT22;1616;52.394;9.756;2024-03-23T12:18:14;11.30;99.90
3208;DHT22;1616;52.394;9.756;2024-03-23T12:20:40;11.50;99.90
3208;DHT22;1616;52.394;9.756;2024-03-23T12:23:08;11.70;99.90
3208;DHT22;1616;52.394;9.756;2024-03-23T12:25:38;11.60;99.90
3208;DHT22;1616;52.394;9.756;2024-03-23T12:28:05;11.80;99.90
3208;DHT22;1616;52.394;9.756;2024-03-23T12:30:35;12.50;99.90
3208;DHT22;1616;52.394;9.756;2024-03-23T12:33:01;13.10;99.90
3208;DHT22;1616;52.394;9.756;2024-03-23T12:35:28;13.30;99.90
3208;DHT22;1616;52.394;9.756;2024-03-23T12:37:54;13.40;99.90
3208;DHT22;1616;52.394;9.756;2024-03-23T12:40:20;13.20;99.90
3208;DHT22;1616;52.394;9.756;2024-03-23T12:42:45;13.00;99.90
3208;DHT22;1616;52.394;9.756;2024-03-23T12:45:11;12.80;99.90
3208;DHT22;1616;52.394;9.756;2024-03-23T12:47:36;12.50;99.90
3208;DHT22;1616;52.394;9.756;2024-03-23T12:50:02;12.20;99.90
3208;DHT22;1616;52.394;9.756;2024-03-23T12:52:29;11.80;99.90
3208;DHT22;1616;52.394;9.756;2024-03-23T12:54:59;11.50;99.90
3208;DHT22;1616;52.394;9.756;2024-03-23T12:57:25;11.30;99.90
3208;DHT22;1616;52.394;9.756;2024-03-23T12:59:54;11.30;99.90
3208;DHT22;1616;52.394;9.756;2024-03-23T13:02:20;11.20;99.90
3208;DHT22;1616;52.394;9.756;2024-03-23T13:04:53;11.10;99.90
3208;DHT22;1616;52.394;9.756;2024-03-23T13:07:20;11.00;99.90
3208;DHT22;1616;52.394;9.756;2024-03-23T13:09:46;11.00;99.90
3208;DHT22;1616;52.394;9.756;2024-03-23T13:12:13;11.00;99.90
3208;DHT22;1616;52.394;9.756;2024-03-23T13:14:43;11.10;99.90
3208;DHT22;1616;52.394;9.756;2024-03-23T13:17:08;11.20;99.90
3208;DHT22;1616;52.394;9.756;2024-03-23T13:19:34;11.20;99.90
3208;DHT22;1616;52.394;9.756;2024-03-23T13:22:01;11.50;99.90
3208;DHT22;1616;52.394;9.756;2024-03-23T13:24:28;11.70;99.90
3208;DHT22;1616;52.394;9.756;2024-03-23T13:26:54;12.00;99.90
3208;DHT22;1616;52.394;9.756;2024-03-23T13:29:20;12.30;99.90
3208;DHT22;1616;52.394;9.756;2024-03-23T13:31:47;12.40;99.90
3208;DHT22;1616;52.394;9.756;2024-03-23T13:34:14;12.30;99.90
3208;DHT22;1616;52.394;9.756;2024-03-23T13:36:46;12.40;99.40
3208;DHT22;1616;52.394;9.756;2024-03-23T13:39:12;12.30;97.60
3208;DHT22;1616;52.394;9.756;2024-03-23T13:44:08;12.10;97.70
3208;DHT22;1616;52.394;9.756;2024-03-23T13:46:38;12.00;97.60
3208;DHT22;1616;52.394;9.756;2024-03-23T13:49:05;12.00;98.00
3208;DHT22;1616;52.394;9.756;2024-03-23T13:51:31;11.90;97.00
3208;DHT22;1616;52.394;9.756;2024-03-23T13:53:57;11.80;98.00
3208;DHT22;1616;52.394;9.756;2024-03-23T13:56:28;11.80;98.50
3208;DHT22;1616;52.394;9.756;2024-03-23T13:58:57;11.80;98.80
3208;DHT22;1616;52.394;9.756;2024-03-23T14:01:23;11.70;98.10
3208;DHT22;1616;52.394;9.756;2024-03-23T14:03:50;11.90;97.60
3208;DHT22;1616;52.394;9.756;2024-03-23T14:06:15;11.90;96.10
3208;DHT22;1616;52.394;9.756;2024-03-23T14:08:41;12.00;96.30
3208;DHT22;1616;52.394;9.756;2024-03-23T14:11:08;12.10;94.70
3208;DHT22;1616;52.394;9.756;2024-03-23T14:13:37;12.10;95.30
3208;DHT22;1616;52.394;9.756;2024-03-23T14:16:03;12.10;94.40
3208;DHT22;1616;52.394;9.756;2024-03-23T14:18:28;12.20;94.50
3208;DHT22;1616;52.394;9.756;2024-03-23T14:21:00;12.30;93.70
3208;DHT22;1616;52.394;9.756;2024-03-23T14:23:28;12.20;92.40
3208;DHT22;1616;52.394;9.756;2024-03-23T14:26:00;12.00;92.10
3208;DHT22;1616;52.394;9.756;2024-03-23T14:28:26;12.00;90.90
3208;DHT22;1616;52.394;9.756;2024-03-23T14:30:54;11.80;91.80
3208;DHT22;1616;52.394;9.756;2024-03-23T14:33:21;11.60;92.60
3208;DHT22;1616;52.394;9.756;2024-03-23T14:35:56;11.50;91.80
3208;DHT22;1616;52.394;9.756;2024-03-23T14:38:25;11.30;90.50
3208;DHT22;1616;52.394;9.756;2024-03-23T14:40:51;11.20;91.00
3208;DHT22;1616;52.394;9.756;2024-03-23T14:43:18;11.10;91.00
3208;DHT22;1616;52.394;9.756;2024-03-23T14:48:31;10.60;90.00
3208;DHT22;1616;52.394;9.756;2024-03-23T14:50:58;10.40;90.50
3208;DHT22;1616;52.394;9.756;2024-03-23T14:53:25;10.20;90.90
3208;DHT22;1616;52.394;9.756;2024-03-23T14:55:54;10.10;91.30
3208;DHT22;1616;52.394;9.756;2024-03-23T14:58:20;10.00;91.20
3208;DHT22;1616;52.394;9.756;2024-03-23T15:00:46;10.00;91.80
3208;DHT22;1616;52.394;9.756;2024-03-23T15:03:11;9.90;92.30
3208;DHT22;1616;52.394;9.756;2024-03-23T15:05:37;9.80;92.20
3208;DHT22;1616;52.394;9.756;2024-03-23T15:08:03;9.90;93.20
3208;DHT22;1616;52.394;9.756;2024-03-23T15:10:29;9.90;93.80
3208;DHT22;1616;52.394;9.756;2024-03-23T15:12:54;10.10;94.00
3208;DHT22;1616;52.394;9.756;2024-03-23T15:15:21;10.20;94.20
3208;DHT22;1616;52.394;9.756;2024-03-23T15:17:48;10.40;94.60
3208;DHT22;1616;52.394;9.756;2024-03-23T15:20:14;10.60;94.60
3208;DHT22;1616;52.394;9.756;2024-03-23T15:22:40;10.60;94.00
3208;DHT22;1616;52.394;9.756;2024-03-23T15:25:07;10.60;93.50
3208;DHT22;1616;52.394;9.756;2024-03-23T15:27:35;10.60;92.30
3208;DHT22;1616;52.394;9.756;2024-03-23T15:30:01;10.50;92.90
3208;DHT22;1616;52.394;9.756;2024-03-23T15:32:28;10.40;93.00
3208;DHT22;1616;52.394;9.756;2024-03-23T15:34:54;10.40;93.80
3208;DHT22;1616;52.394;9.756;2024-03-23T15:37:19;10.40;93.30
3208;DHT22;1616;52.394;9.756;2024-03-23T15:39:46;10.40;93.50
3208;DHT22;1616;52.394;9.756;2024-03-23T15:42:11;10.40;93.70
3208;DHT22;1616;52.394;9.756;2024-03-23T15:44:37;10.40;93.30
3208;DHT22;1616;52.394;9.756;2024-03-23T15:47:03;10.30;93.10
3208;DHT22;1616;52.394;9.756;2024-03-23T15:49:29;10.20;93.10
3208;DHT22;1616;52.394;9.756;2024-03-23T15:51:55;10.10;92.80
3208;DHT22;1616;52.394;9.756;2024-03-23T15:54:22;10.00;92.50
3208;DHT22;1616;52.394;9.756;2024-03-23T15:56:48;9.80;92.90
3208;DHT22;1616;52.394;9.756;2024-03-23T15:59:14;9.40;93.20
3208;DHT22;1616;52.394;9.756;2024-03-23T16:01:40;8.90;94.40
3208;DHT22;1616;52.394;9.756;2024-03-23T16:04:06;8.40;95.70
3208;DHT22;1616;52.394;9.756;2024-03-23T16:06:31;8.00;97.10
3208;DHT22;1616;52.394;9.756;2024-03-23T16:08:57;7.70;99.50
3208;DHT22;1616;52.394;9.756;2024-03-23T16:11:22;7.50;99.90
3208;DHT22;1616;52.394;9.756;2024-03-23T16:13:50;7.60;99.90
3208;DHT22;1616;52.394;9.756;2024-03-23T16:16:16;7.60;99.90
3208;DHT22;1616;52.394;9.756;2024-03-23T16:18:41;7.50;99.90
3208;DHT22;1616;52.394;9.756;2024-03-23T16:21:08;7.60;99.90
3208;DHT22;1616;52.394;9.756;2024-03-23T16:23:34;7.50;99.90
3208;DHT22;1616;52.394;9.756;2024-03-23T16:26:00;7.50;99.90
3208;DHT22;1616;52.394;9.756;2024-03-23T16:28:32;7.40;99.90
3208;DHT22;1616;52.394;9.756;2024-03-23T16:31:07;7.30;99.90
3208;DHT22;1616;52.394;9.756;2024-03-23T16:33:35;7.20;99.90
3208;DHT22;1616;52.394;9.756;2024-03-23T16:36:05;7.00;99.90
3208;DHT22;1616;52.394;9.756;2024-03-23T16:38:38;6.80;99.90
3208;DHT22;1616;52.394;9.756;2024-03-23T16:41:09;6.70;99.90
3208;DHT22;1616;52.394;9.756;2024-03-23T16:43:39;6.60;99.90
3208;DHT22;1616;52.394;9.756;2024-03-23T16:46:06;6.50;99.90
3208;DHT22;1616;52.394;9.756;2024-03-23T16:48:35;6.50;99.90
3208;DHT22;1616;52.394;9.756;2024-03-23T16:51:02;6.30;99.90
3208;DHT22;1616;52.394;9.756;2024-03-23T16:53:30;6.30;99.90
3208;DHT22;1616;52.394;9.756;2024-03-23T16:55:59;6.20;99.90
3208;DHT22;1616;52.394;9.756;2024-03-23T16:58:26;6.20;99.90
3208;DHT22;1616;52.394;9.756;2024-03-23T17:00:52;6.10;99.90
3208;DHT22;1616;52.394;9.756;2024-03-23T17:03:20;6.10;99.90
3208;DHT22;1616;52.394;9.756;2024-03-23T17:05:45;6.00;99.90
3208;DHT22;1616;52.394;9.756;2024-03-23T17:08:11;6.10;99.90
3208;DHT22;1616;52.394;9.756;2024-03-23T17:10:40;6.00;99.90
3208;DHT22;1616;52.394;9.756;2024-03-23T17:13:06;5.90;99.90
3208;DHT22;1616;52.394;9.756;2024-03-23T17:15:32;6.00;99.90
3208;DHT22;1616;52.394;9.756;2024-03-23T17:17:59;5.90;99.90
3208;DHT22;1616;52.394;9.756;2024-03-23T17:20:24;5.90;99.90
3208;DHT22;1616;52.394;9.756;2024-03-23T17:22:54;5.80;99.90
3208;DHT22;1616;52.394;9.756;2024-03-23T17:25:22;5.80;99.90
3208;DHT22;1616;52.394;9.756;2024-03-23T17:27:48;5.80;99.90
3208;DHT22;1616;52.394;9.756;2024-03-23T17:30:14;5.70;99.90
3208;DHT22;1616;52.394;9.756;2024-03-23T17:32:44;5.70;99.90